Terminal Aerodrome Forecast
Issued by NWS State College, PA

Home | Current Version | Previous Version | Text Only | Print | Product List | Glossary On
Versions: 1 2 3 4 5 6 7 8 9 10 11 12 13 14 15 16 17 18 19 20 21 22 23 24 25 26 27 28 29 30 31 32 33 34 35 36 37 38 39 40 41 42 43 44 45 46 47 48 49 50
423
FTUS41 KCTP 250600 AAA
TAFIPT
TAF AMD
KIPT 250600Z 2506/2606 13012G24KT P6SM BKN025
     FM251400 12015G25KT P6SM VCSH SCT008 OVC015
      TEMPO 2517/2519 25015G25KT 2SM +SHRA OVC015
     FM251900 26012G24KT P6SM BKN040=

USA.gov is the U.S. government's official web portal to all federal, state and local government web resources and services.